Time;durP1;ratioP1;P1;durP2;ratioP2;P2;SDS_P1;SDS_P2;PMS_P1;PMS_P2;Temp;Humidity;BMP_temperature;BMP_pressure;BME280_temperature;BME280_humidity;BME280_pressure;Samples;Min_cycle;Max_cycle;Signal;HPM_P1;HPM_P2
2023/01/17 00:02:09;;;;;;;4.68;3.20;;;6.80;99.90;;;;;;5226338;22;20126;-89
2023/01/17 03:29:39;;;;;;;9.98;4.03;;;6.20;99.90;;;;;;5233270;22;20006;-88
2023/01/17 03:31:59;;;;;;;6.32;4.03;;;6.20;99.90;;;;;;5224410;22;20338;-89
2023/01/17 03:34:19;;;;;;;5.43;4.13;;;6.20;99.90;;;;;;5222963;22;20030;-88
2023/01/17 03:36:38;;;;;;;6.53;3.08;;;6.30;99.90;;;;;;5209333;22;20254;-89
2023/01/17 03:38:58;;;;;;;5.57;3.03;;;6.10;99.90;;;;;;5215339;22;20026;-88
2023/01/17 03:41:18;;;;;;;8.10;3.45;;;6.00;99.90;;;;;;5200703;22;20022;-89
2023/01/17 03:43:38;;;;;;;8.90;5.35;;;6.00;99.90;;;;;;5200757;22;20230;-88
2023/01/17 03:46:06;;;;;;;9.23;3.70;;;6.00;99.90;;;;;;5212256;22;20021;-89
2023/01/17 03:48:26;;;;;;;8.15;4.18;;;5.90;99.90;;;;;;5206119;22;20035;-88
2023/01/17 03:50:50;;;;;;;7.85;4.82;;;5.90;99.90;;;;;;5224359;22;20022;-88
2023/01/17 03:53:10;;;;;;;9.98;4.88;;;5.90;99.90;;;;;;5206103;22;20079;-88
2023/01/17 03:55:29;;;;;;;6.30;3.38;;;5.90;99.90;;;;;;5225319;22;20022;-88
2023/01/17 03:57:49;;;;;;;5.95;3.22;;;6.00;99.90;;;;;;5224263;22;20376;-88
2023/01/17 04:00:10;;;;;;;10.40;4.60;;;5.90;99.90;;;;;;5231802;22;20049;-88
2023/01/17 04:02:30;;;;;;;5.03;4.03;;;6.00;99.90;;;;;;5232852;22;20022;-88
2023/01/17 04:04:50;;;;;;;7.60;3.90;;;6.00;99.90;;;;;;5223041;22;20363;-88
2023/01/17 04:07:10;;;;;;;5.97;4.68;;;6.00;99.90;;;;;;5209133;22;20258;-88
2023/01/17 04:09:32;;;;;;;11.95;4.05;;;6.00;99.90;;;;;;5200655;22;20127;-88
2023/01/17 04:11:52;;;;;;;6.07;5.00;;;6.00;99.90;;;;;;5233376;22;20040;-88
2023/01/17 04:14:44;;;;;;;7.18;3.55;;;6.00;99.90;;;;;;5208910;22;20023;-88
2023/01/17 04:17:04;;;;;;;8.60;4.20;;;5.90;99.90;;;;;;5201222;22;20070;-88
2023/01/17 04:19:24;;;;;;;7.18;3.97;;;5.90;99.90;;;;;;5232811;22;20026;-88
2023/01/17 04:21:44;;;;;;;13.35;6.38;;;5.90;99.90;;;;;;5224171;22;20022;-88
2023/01/17 04:24:05;;;;;;;6.93;4.75;;;5.80;99.90;;;;;;5231570;22;20038;-87
2023/01/17 04:26:25;;;;;;;5.68;4.55;;;5.80;99.90;;;;;;5209126;22;20027;-88
2023/01/17 04:28:45;;;;;;;11.65;4.53;;;5.80;99.90;;;;;;5209106;22;20038;-88
2023/01/17 04:31:05;;;;;;;8.75;4.00;;;5.90;99.90;;;;;;5213477;22;20114;-88
2023/01/17 04:33:25;;;;;;;5.03;4.40;;;5.80;99.90;;;;;;5197472;22;20022;-88
2023/01/17 04:35:44;;;;;;;3.33;2.90;;;5.90;99.90;;;;;;5213380;22;20083;-88
2023/01/17 04:38:04;;;;;;;9.38;4.57;;;5.90;99.90;;;;;;5231549;22;20056;-88
2023/01/17 04:40:24;;;;;;;7.35;3.67;;;5.90;99.90;;;;;;5224024;22;20074;-88
2023/01/17 04:42:44;;;;;;;4.65;4.22;;;6.00;99.90;;;;;;5224207;22;20069;-88
2023/01/17 04:45:05;;;;;;;3.92;3.35;;;6.00;99.90;;;;;;5207181;22;20062;-88
2023/01/17 04:47:25;;;;;;;4.40;4.05;;;6.00;99.90;;;;;;5217460;22;20034;-88
2023/01/17 04:49:45;;;;;;;5.13;3.65;;;6.00;99.90;;;;;;5209003;22;20022;-88
2023/01/17 04:52:05;;;;;;;2.97;2.72;;;6.00;99.90;;;;;;5229317;22;20243;-89
2023/01/17 04:54:25;;;;;;;3.67;3.40;;;6.10;99.90;;;;;;5211084;22;20066;-89
2023/01/17 04:56:44;;;;;;;3.58;3.40;;;6.20;99.90;;;;;;5224899;22;20253;-89
2023/01/17 04:59:04;;;;;;;3.97;3.80;;;6.30;99.90;;;;;;5197415;22;20043;-88
2023/01/17 05:01:24;;;;;;;3.55;3.35;;;6.20;99.90;;;;;;5224831;22;20205;-88
2023/01/17 05:03:44;;;;;;;4.40;4.00;;;6.20;99.90;;;;;;5222346;22;20030;-88
2023/01/17 05:06:05;;;;;;;3.47;3.20;;;6.20;99.90;;;;;;5212851;22;20052;-89
2023/01/17 05:08:26;;;;;;;3.95;3.85;;;6.10;99.90;;;;;;5233672;22;20022;-89
2023/01/17 05:10:46;;;;;;;4.22;3.92;;;6.10;99.90;;;;;;5201578;22;20027;-88
2023/01/17 05:13:06;;;;;;;3.50;2.88;;;6.10;99.90;;;;;;5200526;22;20022;-89
2023/01/17 05:15:27;;;;;;;3.95;3.70;;;6.10;99.90;;;;;;5231293;22;20226;-88
2023/01/17 05:17:46;;;;;;;4.63;4.03;;;6.10;99.90;;;;;;5231335;22;20071;-89
2023/01/17 05:20:07;;;;;;;4.05;3.08;;;6.10;99.90;;;;;;5231498;22;20271;-89
2023/01/17 05:22:27;;;;;;;4.45;4.20;;;6.10;99.90;;;;;;5223945;22;20060;-89
2023/01/17 05:24:47;;;;;;;3.05;2.92;;;6.10;99.90;;;;;;5232529;22;20025;-89
2023/01/17 05:27:07;;;;;;;3.58;3.28;;;6.20;99.90;;;;;;5231490;22;20022;-88
2023/01/17 05:29:29;;;;;;;4.35;4.25;;;6.20;99.90;;;;;;5223577;22;20045;-88
2023/01/17 05:31:48;;;;;;;4.10;3.90;;;6.20;99.90;;;;;;5221110;22;20056;-88
2023/01/17 05:34:08;;;;;;;3.47;3.28;;;6.20;99.90;;;;;;5208731;22;20054;-88
2023/01/17 05:36:29;;;;;;;3.25;3.13;;;6.10;99.90;;;;;;5221310;22;20034;-88
2023/01/17 05:38:49;;;;;;;4.63;4.47;;;6.10;99.90;;;;;;5219022;22;20034;-88
2023/01/17 05:41:09;;;;;;;3.85;3.75;;;6.10;99.90;;;;;;5214947;22;20026;-87
2023/01/17 05:43:30;;;;;;;4.30;4.20;;;6.10;99.90;;;;;;5208184;22;20022;-87
2023/01/17 05:45:50;;;;;;;3.13;2.80;;;6.10;99.90;;;;;;5225611;22;20210;-88
2023/01/17 05:48:10;;;;;;;3.03;2.92;;;6.00;99.90;;;;;;5232460;22;20064;-88
2023/01/17 05:50:34;;;;;;;6.43;4.07;;;6.00;99.90;;;;;;5208843;22;20023;-88
2023/01/17 05:52:56;;;;;;;2.72;2.72;;;6.00;99.90;;;;;;5229648;22;20066;-88
2023/01/17 05:55:16;;;;;;;4.15;4.05;;;5.90;99.90;;;;;;5223667;22;20023;-88
2023/01/17 05:57:37;;;;;;;4.80;4.68;;;5.90;99.90;;;;;;5227007;22;20026;-88
2023/01/17 05:59:57;;;;;;;3.58;3.38;;;5.90;99.90;;;;;;5234389;22;20025;-88
2023/01/17 06:02:17;;;;;;;5.03;4.70;;;5.90;99.90;;;;;;5199868;22;20104;-88
2023/01/17 06:04:37;;;;;;;5.25;4.70;;;5.80;99.90;;;;;;5209850;22;20027;-88
2023/01/17 06:06:58;;;;;;;3.70;3.50;;;5.90;99.90;;;;;;5178702;22;20022;-88
2023/01/17 06:09:18;;;;;;;5.05;4.72;;;5.80;99.90;;;;;;5186965;22;20026;-88
2023/01/17 06:11:37;;;;;;;4.25;4.13;;;5.80;99.90;;;;;;5187066;22;20023;-88
2023/01/17 06:13:57;;;;;;;4.50;4.13;;;5.80;99.90;;;;;;5201283;22;20069;-88
2023/01/17 06:16:17;;;;;;;4.03;3.92;;;5.80;99.90;;;;;;5200663;22;20051;-88
2023/01/17 06:18:37;;;;;;;3.88;3.60;;;5.80;99.90;;;;;;5223547;22;20039;-88
2023/01/17 06:20:58;;;;;;;4.15;3.95;;;5.70;99.90;;;;;;5226617;22;20083;-88
2023/01/17 06:23:18;;;;;;;4.40;4.28;;;5.80;99.90;;;;;;5208707;22;20057;-87
2023/01/17 06:25:42;;;;;;;4.72;4.53;;;5.80;99.90;;;;;;5205308;22;20038;-88
2023/01/17 06:28:02;;;;;;;4.25;4.13;;;5.70;99.90;;;;;;5208477;22;20353;-88
2023/01/17 06:30:22;;;;;;;4.10;3.90;;;5.70;99.90;;;;;;5221410;22;20039;-87
2023/01/17 06:32:42;;;;;;;2.85;2.85;;;5.70;99.90;;;;;;5196730;22;20026;-88
2023/01/17 06:35:02;;;;;;;3.15;3.05;;;5.70;99.90;;;;;;5221267;22;20068;-87
2023/01/17 06:37:23;;;;;;;4.38;4.28;;;5.70;99.90;;;;;;5224526;22;20372;-88
2023/01/17 06:39:42;;;;;;;3.80;3.60;;;5.70;99.90;;;;;;5231949;22;20026;-87
2023/01/17 06:42:03;;;;;;;3.88;3.78;;;5.70;99.90;;;;;;5222309;22;20215;-87
2023/01/17 06:44:25;;;;;;;6.22;6.13;;;5.70;99.90;;;;;;5199830;22;20079;-87
2023/01/17 06:46:46;;;;;;;5.40;5.13;;;5.70;99.90;;;;;;5208302;22;20061;-88
2023/01/17 06:49:06;;;;;;;4.50;4.32;;;5.70;99.90;;;;;;5219839;22;20087;-87
2023/01/17 06:51:26;;;;;;;4.93;4.82;;;5.70;99.90;;;;;;5232014;22;20065;-87
2023/01/17 06:53:47;;;;;;;6.28;5.88;;;5.80;99.90;;;;;;5201034;22;20030;-87
2023/01/17 06:56:08;;;;;;;5.70;5.60;;;5.80;99.90;;;;;;5223237;22;20022;-87
2023/01/17 06:58:28;;;;;;;6.43;5.97;;;5.80;99.90;;;;;;5203617;22;20250;-87
2023/01/17 07:00:48;;;;;;;3.85;3.65;;;5.70;99.90;;;;;;5226613;22;20046;-87
2023/01/17 07:03:28;;;;;;;8.93;8.20;;;5.70;99.90;;;;;;5203385;22;20035;-87
2023/01/17 07:05:49;;;;;;;26.15;20.42;;;5.70;99.90;;;;;;5201902;22;20207;-87
2023/01/17 07:08:09;;;;;;;17.23;15.40;;;5.70;99.90;;;;;;5222139;22;20046;-87
2023/01/17 07:10:29;;;;;;;18.58;16.55;;;5.80;99.90;;;;;;5223249;22;20241;-88
2023/01/17 07:12:50;;;;;;;11.45;9.00;;;5.80;99.90;;;;;;5223283;22;20207;-87
2023/01/17 07:15:10;;;;;;;6.35;5.35;;;5.80;99.90;;;;;;5209353;22;20042;-88
2023/01/17 07:17:30;;;;;;;3.38;3.35;;;5.70;99.90;;;;;;5210088;22;20022;-87
2023/01/17 07:19:50;;;;;;;5.53;5.35;;;5.70;99.90;;;;;;5232893;22;20027;-87
2023/01/17 07:22:10;;;;;;;5.25;5.05;;;5.70;99.90;;;;;;5213321;22;20116;-87
2023/01/17 07:24:31;;;;;;;5.35;4.93;;;5.70;99.90;;;;;;5212011;22;20069;-87
2023/01/17 07:26:51;;;;;;;6.57;4.85;;;5.70;99.90;;;;;;5200788;22;20065;-87
2023/01/17 07:29:11;;;;;;;6.07;5.82;;;5.80;99.90;;;;;;5215337;22;20081;-87
2023/01/17 07:31:34;;;;;;;6.30;6.00;;;5.80;99.90;;;;;;5200941;22;20058;-87
2023/01/17 07:33:54;;;;;;;6.72;6.32;;;5.80;99.90;;;;;;5217858;22;20042;-87
2023/01/17 07:36:14;;;;;;;7.22;6.82;;;5.80;99.90;;;;;;5209264;22;20027;-87
2023/01/17 07:38:34;;;;;;;5.25;5.05;;;5.80;99.90;;;;;;5220189;22;20021;-87
2023/01/17 07:40:58;;;;;;;6.10;5.82;;;5.80;99.90;;;;;;5224374;22;20248;-87
2023/01/17 07:43:18;;;;;;;5.40;5.18;;;5.80;99.90;;;;;;5204587;22;20051;-87
2023/01/17 07:45:49;;;;;;;3.85;3.63;;;5.80;99.90;;;;;;5234831;22;20057;-87
2023/01/17 07:48:10;;;;;;;3.05;2.92;;;5.90;99.90;;;;;;5213022;22;20026;-87
2023/01/17 07:50:30;;;;;;;3.17;2.95;;;5.90;99.90;;;;;;5201869;22;20050;-87
2023/01/17 07:52:51;;;;;;;4.07;3.90;;;5.90;99.90;;;;;;5201852;22;20065;-87
2023/01/17 07:55:11;;;;;;;4.20;4.00;;;5.90;99.90;;;;;;5202336;22;20022;-87
2023/01/17 07:57:31;;;;;;;4.20;4.10;;;6.00;99.90;;;;;;5210855;22;20050;-87
2023/01/17 07:59:51;;;;;;;4.40;4.28;;;6.00;99.90;;;;;;5223083;22;20118;-87
2023/01/17 08:02:19;;;;;;;7.65;7.22;;;6.00;99.90;;;;;;5223103;22;20023;-87
2023/01/17 08:04:40;;;;;;;12.52;11.48;;;6.00;99.90;;;;;;5224297;22;20022;-87
2023/01/17 08:07:01;;;;;;;10.77;9.90;;;6.00;99.90;;;;;;5232804;22;20026;-87
2023/01/17 08:09:21;;;;;;;6.90;6.80;;;6.00;99.90;;;;;;5223020;22;20046;-87
2023/01/17 08:11:40;;;;;;;7.32;6.93;;;6.00;99.90;;;;;;5200652;22;20290;-88
2023/01/17 08:14:00;;;;;;;12.48;11.80;;;6.10;99.90;;;;;;5208948;22;20030;-87
2023/01/17 08:16:21;;;;;;;26.25;23.77;;;6.10;99.90;;;;;;5212591;22;20119;-87
2023/01/17 08:18:41;;;;;;;18.23;16.33;;;6.10;99.90;;;;;;5224212;22;20061;-87
2023/01/17 08:21:01;;;;;;;18.15;16.40;;;6.00;99.90;;;;;;5226223;22;20026;-87
2023/01/17 08:23:21;;;;;;;17.65;15.85;;;6.00;99.90;;;;;;5207473;22;20038;-87
2023/01/17 08:25:41;;;;;;;9.07;8.55;;;6.10;99.90;;;;;;5220338;22;20022;-87
2023/01/17 08:28:01;;;;;;;8.30;7.72;;;6.00;99.90;;;;;;5200717;22;20027;-88
2023/01/17 08:30:21;;;;;;;18.40;16.85;;;6.00;99.90;;;;;;5204393;22;20281;-88
2023/01/17 08:32:41;;;;;;;21.17;18.98;;;6.10;99.90;;;;;;5211957;22;20026;-87
2023/01/17 08:35:01;;;;;;;30.50;22.42;;;6.00;99.90;;;;;;5222245;22;20061;-87
2023/01/17 08:37:20;;;;;;;16.95;15.27;;;6.10;99.90;;;;;;5224087;22;20075;-87
2023/01/17 08:39:41;;;;;;;10.07;9.27;;;6.10;99.90;;;;;;5227428;22;20059;-87
2023/01/17 08:42:01;;;;;;;11.60;10.60;;;6.00;99.90;;;;;;5227485;22;20065;-87
2023/01/17 08:44:20;;;;;;;8.35;7.68;;;6.00;99.90;;;;;;5227278;22;20026;-87
2023/01/17 08:46:42;;;;;;;10.93;10.15;;;6.00;99.90;;;;;;5204125;22;20022;-87
2023/01/17 08:49:03;;;;;;;9.33;8.93;;;6.00;99.90;;;;;;5201726;22;20118;-87
2023/01/17 08:51:25;;;;;;;10.88;10.18;;;6.00;99.90;;;;;;5187354;22;20083;-87
2023/01/17 08:53:45;;;;;;;17.42;15.65;;;6.00;99.90;;;;;;5211266;22;20376;-87
2023/01/17 08:56:05;;;;;;;16.08;14.60;;;5.90;99.90;;;;;;5224162;22;20087;-87
2023/01/17 08:58:27;;;;;;;9.50;8.93;;;5.90;99.90;;;;;;5212352;22;20023;-86
2023/01/17 09:00:49;;;;;;;9.57;8.80;;;5.90;99.90;;;;;;5223992;22;20026;-86
2023/01/17 09:03:12;;;;;;;7.75;7.45;;;5.90;99.90;;;;;;5224176;22;20206;-86
2023/01/17 09:05:33;;;;;;;11.00;10.27;;;5.90;99.90;;;;;;5223012;22;20022;-86
2023/01/17 09:07:55;;;;;;;9.07;8.73;;;5.90;99.90;;;;;;5222157;22;20026;-86
2023/01/17 09:10:15;;;;;;;11.52;10.63;;;5.90;99.90;;;;;;5212128;22;20345;-86
2023/01/17 09:12:35;;;;;;;10.65;10.05;;;5.90;99.90;;;;;;5197341;22;20249;-86
2023/01/17 09:14:55;;;;;;;14.80;13.75;;;5.90;99.90;;;;;;5214353;22;20065;-86
2023/01/17 09:17:15;;;;;;;85.88;61.42;;;5.90;99.90;;;;;;5208966;22;20114;-86
2023/01/17 09:19:37;;;;;;;27.05;24.20;;;5.90;99.90;;;;;;5216539;22;20022;-86
2023/01/17 09:21:57;;;;;;;17.45;16.05;;;5.90;99.90;;;;;;5200570;22;20357;-86
2023/01/17 09:24:18;;;;;;;17.75;15.98;;;5.90;99.90;;;;;;5219094;22;20068;-86
2023/01/17 09:26:38;;;;;;;18.52;16.70;;;5.90;99.90;;;;;;5232544;22;20332;-86
2023/01/17 09:28:57;;;;;;;19.67;17.80;;;6.00;99.90;;;;;;5225967;22;20026;-86
2023/01/17 09:31:21;;;;;;;19.65;17.63;;;6.00;99.90;;;;;;5232482;22;20022;-86
2023/01/17 09:33:42;;;;;;;14.75;13.70;;;5.90;99.90;;;;;;5222060;22;20026;-86
2023/01/17 09:36:04;;;;;;;22.73;19.33;;;6.00;99.90;;;;;;5212170;22;20038;-86
2023/01/17 09:38:24;;;;;;;14.60;13.65;;;6.00;99.90;;;;;;5225911;22;20023;-86
2023/01/17 09:40:46;;;;;;;11.38;10.35;;;6.00;99.90;;;;;;5203450;22;20368;-86
2023/01/17 09:43:33;;;;;;;13.35;12.40;;;6.10;99.90;;;;;;5187172;22;20023;-87
2023/01/17 09:45:53;;;;;;;10.98;10.48;;;6.10;99.90;;;;;;5216040;22;20069;-86
2023/01/17 09:48:20;;;;;;;16.73;15.18;;;6.20;99.90;;;;;;5200377;22;20023;-86
2023/01/17 09:50:47;;;;;;;93.32;23.33;;;6.20;99.90;;;;;;5204030;22;20026;-86
2023/01/17 09:53:14;;;;;;;238.93;36.67;;;6.20;99.90;;;;;;5208604;22;20061;-86
2023/01/17 09:55:42;;;;;;;149.18;37.08;;;6.20;99.90;;;;;;5208697;22;20095;-86
2023/01/17 09:58:09;;;;;;;75.85;30.33;;;6.10;99.90;;;;;;5227333;22;20074;-87
2023/01/17 10:01:02;;;;;;;52.67;21.98;;;6.10;99.90;;;;;;5232280;22;20084;-86
2023/01/17 10:03:48;;;;;;;154.70;32.05;;;6.10;99.90;;;;;;5151270;23;20027;-86
2023/01/17 10:06:10;;;;;;;37.13;13.73;;;6.10;99.90;;;;;;5121032;23;20077;-87
2023/01/17 10:08:33;;;;;;;63.42;27.75;;;6.10;99.90;;;;;;5120898;23;20021;-87
2023/01/17 10:11:11;;;;;;;113.00;44.47;;;6.10;99.90;;;;;;5129352;23;20056;-87
2023/01/17 10:13:48;;;;;;;79.95;24.08;;;6.10;99.90;;;;;;5129261;23;20024;-87
2023/01/17 10:16:45;;;;;;;55.38;22.83;;;6.10;99.90;;;;;;5121047;23;20036;-87
2023/01/17 10:19:24;;;;;;;18.13;15.38;;;6.10;99.90;;;;;;5112284;23;20047;-87
2023/01/17 10:22:29;;;;;;;61.10;21.02;;;6.10;99.90;;;;;;5108184;23;20336;-87
2023/01/17 10:25:23;;;;;;;36.60;19.08;;;6.10;99.90;;;;;;5129318;23;20028;-87
2023/01/17 10:28:04;;;;;;;57.38;18.45;;;6.10;99.90;;;;;;5132200;23;20071;-87
2023/01/17 10:30:47;;;;;;;55.17;22.95;;;6.10;99.90;;;;;;5108506;23;20113;-86
2023/01/17 10:33:27;;;;;;;87.05;24.90;;;6.10;99.90;;;;;;5104462;23;20064;-86
2023/01/17 10:35:53;;;;;;;16.85;15.52;;;6.00;99.90;;;;;;5120778;23;20080;-86
2023/01/17 10:38:15;;;;;;;32.50;21.95;;;6.10;99.90;;;;;;5132822;22;20067;-86
2023/01/17 10:40:49;;;;;;;14.07;12.75;;;6.10;99.90;;;;;;5223021;22;20041;-86
2023/01/17 10:43:32;;;;;;;12.02;11.38;;;6.10;99.90;;;;;;5203704;22;20095;-86
2023/01/17 10:45:54;;;;;;;275.73;38.63;;;6.10;99.90;;;;;;5235215;22;20029;-86
2023/01/17 10:48:17;;;;;;;298.53;77.60;;;6.10;99.90;;;;;;5227174;22;20290;-86
2023/01/17 10:51:06;;;;;;;359.00;60.63;;;6.10;99.90;;;;;;5202150;22;20030;-86
2023/01/17 10:53:41;;;;;;;448.52;70.10;;;6.10;99.90;;;;;;5163238;22;20022;-86
2023/01/17 10:56:02;;;;;;;93.53;26.80;;;6.10;99.90;;;;;;5235203;22;20038;-86
2023/01/17 10:58:23;;;;;;;10.70;9.73;;;6.10;99.90;;;;;;5226494;22;20304;-86
2023/01/17 11:00:59;;;;;;;29.02;15.32;;;6.20;99.90;;;;;;5233099;22;20041;-85
2023/01/17 11:03:20;;;;;;;18.48;16.83;;;6.20;99.90;;;;;;5205785;22;20333;-86
2023/01/17 11:05:41;;;;;;;20.65;18.63;;;6.20;99.90;;;;;;5219847;22;20022;-86
2023/01/17 11:08:06;;;;;;;15.50;14.50;;;6.20;99.90;;;;;;5226438;22;20025;-86
2023/01/17 11:10:40;;;;;;;37.10;25.45;;;6.30;99.90;;;;;;5224484;22;20022;-86
2023/01/17 11:13:01;;;;;;;20.95;18.73;;;6.20;99.90;;;;;;5227059;22;20026;-86
2023/01/17 11:15:24;;;;;;;23.00;20.60;;;6.30;99.90;;;;;;5179554;22;20075;-86
2023/01/17 11:18:12;;;;;;;23.98;21.75;;;6.30;99.90;;;;;;5210901;22;20030;-86
2023/01/17 11:20:37;;;;;;;28.55;21.67;;;6.40;99.90;;;;;;5213275;22;20081;-86
2023/01/17 11:23:20;;;;;;;48.33;18.15;;;6.40;99.90;;;;;;5235080;22;20030;-86
2023/01/17 11:25:49;;;;;;;13.23;12.20;;;6.30;99.90;;;;;;5216269;22;20113;-86
2023/01/17 11:28:33;;;;;;;22.27;16.83;;;6.30;99.90;;;;;;5193854;22;20038;-86
2023/01/17 11:30:58;;;;;;;8.07;7.95;;;6.30;99.90;;;;;;5204684;22;20250;-86
2023/01/17 11:33:55;;;;;;;6.43;6.32;;;6.30;99.90;;;;;;5225122;22;20042;-86
2023/01/17 11:36:15;;;;;;;5.97;5.88;;;6.30;99.90;;;;;;5180605;22;20026;-86
2023/01/17 11:38:34;;;;;;;5.30;5.10;;;6.40;99.90;;;;;;5224325;22;20391;-86
2023/01/17 11:41:18;;;;;;;4.70;4.60;;;6.50;99.90;;;;;;5209300;22;20368;-86
2023/01/17 11:43:49;;;;;;;5.63;5.53;;;6.70;99.90;;;;;;5216212;22;20064;-86
2023/01/17 11:46:17;;;;;;;5.55;5.45;;;6.90;99.90;;;;;;5204674;22;20026;-86
2023/01/17 11:48:38;;;;;;;4.00;3.90;;;7.00;99.90;;;;;;5208245;22;20046;-86
2023/01/17 11:50:59;;;;;;;3.67;3.67;;;7.20;99.90;;;;;;5224255;22;20072;-86
2023/01/17 11:53:48;;;;;;;4.60;4.50;;;7.40;99.90;;;;;;5227644;22;20022;-86
2023/01/17 11:56:21;;;;;;;14.45;13.57;;;7.40;99.90;;;;;;5223270;22;20026;-86
2023/01/17 11:58:42;;;;;;;6.97;6.88;;;7.40;99.90;;;;;;5205699;22;20070;-86
2023/01/17 12:01:13;;;;;;;9.55;9.13;;;7.30;99.90;;;;;;5200926;22;20030;-86
2023/01/17 12:03:49;;;;;;;3.53;3.53;;;7.30;99.90;;;;;;5212249;22;20027;-86
2023/01/17 12:06:12;;;;;;;7.00;6.80;;;7.50;99.90;;;;;;5193472;22;20061;-86
2023/01/17 12:08:54;;;;;;;8.07;7.78;;;7.60;99.90;;;;;;5218675;22;20079;-86
2023/01/17 12:13:59;;;;;;;5.10;5.00;;;7.60;99.90;;;;;;5227504;22;20065;-86
2023/01/17 12:14:35;;;;;;;4.63;4.53;;;7.70;99.90;;;;;;5232572;22;20045;-86
2023/01/17 12:17:10;;;;;;;3.72;3.63;;;8.20;99.90;;;;;;5214173;22;20026;-86
2023/01/17 12:19:42;;;;;;;4.20;4.10;;;8.80;99.90;;;;;;5214956;22;20022;-86
2023/01/17 12:22:39;;;;;;;6.77;6.50;;;8.60;99.90;;;;;;5206364;22;20027;-86
2023/01/17 12:25:20;;;;;;;6.78;6.53;;;8.50;99.90;;;;;;5187489;22;20027;-86
2023/01/17 12:28:18;;;;;;;6.20;6.10;;;8.50;99.90;;;;;;5212925;22;20027;-86
2023/01/17 12:30:53;;;;;;;7.63;7.28;;;8.60;99.90;;;;;;5224242;22;20086;-86
2023/01/17 12:33:20;;;;;;;4.38;4.18;;;8.70;99.90;;;;;;5232576;22;20075;-86
2023/01/17 12:35:57;;;;;;;3.72;3.63;;;8.70;99.90;;;;;;5232702;22;20034;-86
2023/01/17 12:38:38;;;;;;;5.88;5.68;;;8.80;99.90;;;;;;5222341;22;20060;-86
2023/01/17 12:41:19;;;;;;;4.18;4.07;;;8.90;99.90;;;;;;5200538;22;20026;-86
2023/01/17 12:43:40;;;;;;;8.80;8.30;;;8.80;99.90;;;;;;5207220;22;20259;-86
2023/01/17 12:46:25;;;;;;;8.02;7.72;;;8.80;99.90;;;;;;5216251;22;20034;-86
2023/01/17 12:48:50;;;;;;;8.13;7.70;;;8.70;99.90;;;;;;5211057;22;20057;-86
2023/01/17 12:51:20;;;;;;;5.45;5.18;;;8.70;99.90;;;;;;5224154;22;20222;-86
2023/01/17 12:53:46;;;;;;;5.28;5.15;;;8.80;99.90;;;;;;5213140;22;20245;-87
2023/01/17 12:56:27;;;;;;;3.75;3.65;;;8.80;99.90;;;;;;5230936;22;20030;-86
2023/01/17 12:58:54;;;;;;;4.25;4.22;;;8.80;99.90;;;;;;5226711;22;20091;-86
2023/01/17 13:01:22;;;;;;;3.33;3.22;;;8.90;99.90;;;;;;5201611;22;20348;-87
2023/01/17 13:04:15;;;;;;;4.70;4.50;;;8.90;99.90;;;;;;5204472;22;20053;-87
2023/01/17 13:06:59;;;;;;;6.20;5.78;;;8.90;99.90;;;;;;5224116;22;20341;-87
2023/01/17 13:09:22;;;;;;;3.88;3.78;;;8.90;99.90;;;;;;5224072;22;20065;-87
2023/01/17 13:11:48;;;;;;;5.10;4.95;;;9.00;99.90;;;;;;5223285;22;20022;-87
2023/01/17 13:14:09;;;;;;;6.53;6.10;;;9.00;99.90;;;;;;5223935;22;20091;-87
2023/01/17 13:16:43;;;;;;;3.40;3.20;;;9.00;99.90;;;;;;5232548;22;20034;-86
2023/01/17 13:19:14;;;;;;;6.40;6.13;;;9.00;99.90;;;;;;5212167;22;20066;-87
2023/01/17 13:21:34;;;;;;;5.13;4.85;;;9.10;99.90;;;;;;5201333;22;20249;-87
2023/01/17 13:24:06;;;;;;;3.80;3.60;;;9.10;99.90;;;;;;5202401;22;20070;-87
2023/01/17 13:26:45;;;;;;;5.90;5.47;;;9.10;99.90;;;;;;5217183;22;20038;-87
2023/01/17 13:29:20;;;;;;;7.82;7.03;;;9.10;99.90;;;;;;5220704;22;20060;-87
2023/01/17 13:32:05;;;;;;;5.95;5.53;;;9.00;99.90;;;;;;5223850;22;20084;-87
2023/01/17 13:34:43;;;;;;;5.75;5.40;;;8.90;99.90;;;;;;5223696;22;20033;-87
2023/01/17 13:37:31;;;;;;;4.00;3.90;;;9.00;99.90;;;;;;5203457;22;20091;-87
2023/01/17 13:40:17;;;;;;;4.22;4.00;;;9.00;99.90;;;;;;5206036;22;20026;-87
2023/01/17 13:42:57;;;;;;;4.70;4.45;;;9.10;99.90;;;;;;5223854;22;20022;-87
2023/01/17 13:45:20;;;;;;;7.53;6.70;;;9.20;99.90;;;;;;5223887;22;20021;-87
2023/01/17 13:47:40;;;;;;;;;;;9.10;99.90;;;;;;5183397;22;20027;-87
2023/01/17 13:50:00;;;;;;;5.13;4.65;;;9.20;99.90;;;;;;5200250;22;19967;-87
2023/01/17 13:52:22;;;;;;;3.95;3.85;;;9.20;99.90;;;;;;5219979;22;20219;-87
2023/01/17 13:54:49;;;;;;;6.00;5.65;;;9.20;99.90;;;;;;5199513;22;20061;-87
2023/01/17 13:57:24;;;;;;;5.45;5.13;;;9.10;99.90;;;;;;5225740;22;20034;-87
2023/01/17 13:59:47;;;;;;;6.25;5.85;;;9.10;99.90;;;;;;5222563;22;20056;-87
2023/01/17 14:02:30;;;;;;;9.30;8.43;;;9.10;99.90;;;;;;5223710;22;20022;-87
2023/01/17 14:05:13;;;;;;;3.95;3.85;;;9.20;99.90;;;;;;5223717;22;20022;-87
2023/01/17 14:07:39;;;;;;;4.20;4.10;;;9.10;99.90;;;;;;5223748;22;20026;-87
2023/01/17 14:09:59;;;;;;;7.43;6.93;;;9.10;99.90;;;;;;5223710;22;20022;-88
2023/01/17 14:12:20;;;;;;;6.22;5.93;;;9.00;99.90;;;;;;5232267;22;20057;-87
2023/01/17 14:14:42;;;;;;;3.60;3.50;;;9.00;99.90;;;;;;5212923;22;20062;-87
2023/01/17 14:17:19;;;;;;;3.50;3.50;;;8.90;99.90;;;;;;5220858;22;20026;-87
2023/01/17 14:19:39;;;;;;;4.82;4.63;;;8.90;99.90;;;;;;5221890;22;20022;-87
2023/01/17 14:22:26;;;;;;;3.25;3.15;;;8.90;99.90;;;;;;5226999;22;20026;-88
2023/01/17 14:24:56;;;;;;;6.50;6.30;;;9.00;99.90;;;;;;5233174;22;20038;-88
2023/01/17 14:27:24;;;;;;;8.20;4.40;;;8.90;99.90;;;;;;5224630;22;20042;-88
2023/01/17 14:29:58;;;;;;;4.75;4.55;;;8.90;99.90;;;;;;5224649;22;20359;-88
2023/01/17 14:32:26;;;;;;;5.13;4.97;;;8.90;99.90;;;;;;5210093;22;20026;-87
2023/01/17 14:34:48;;;;;;;4.57;4.47;;;8.90;99.90;;;;;;5191508;22;20031;-87
2023/01/17 14:37:31;;;;;;;4.82;4.63;;;8.90;99.90;;;;;;5201048;22;20381;-87
2023/01/17 14:39:51;;;;;;;4.45;4.32;;;8.90;99.90;;;;;;5220497;22;20022;-87
2023/01/17 14:42:18;;;;;;;5.22;4.82;;;8.90;99.90;;;;;;5221807;22;20026;-87
2023/01/17 14:44:38;;;;;;;5.68;5.47;;;9.00;99.90;;;;;;5209623;22;20380;-87
2023/01/17 14:46:58;;;;;;;3.90;3.80;;;9.00;99.90;;;;;;5200986;22;20054;-87
2023/01/17 14:49:22;;;;;;;5.53;5.38;;;9.10;99.90;;;;;;5179582;22;20055;-87
2023/01/17 14:51:56;;;;;;;4.35;4.25;;;9.10;99.90;;;;;;5204774;22;20365;-87
2023/01/17 14:54:21;;;;;;;4.55;4.25;;;9.00;99.90;;;;;;5223358;22;20074;-87
2023/01/17 14:56:41;;;;;;;4.65;4.45;;;9.00;99.90;;;;;;5224493;22;20033;-87
2023/01/17 14:59:19;;;;;;;4.25;4.07;;;9.00;99.90;;;;;;5200894;22;20023;-87
2023/01/17 15:01:41;;;;;;;8.30;7.68;;;9.00;99.90;;;;;;5216617;22;20065;-88
2023/01/17 15:04:03;;;;;;;5.68;5.32;;;9.00;99.90;;;;;;5224627;22;20049;-87
2023/01/17 15:06:39;;;;;;;5.82;4.95;;;8.90;99.90;;;;;;5205153;22;20022;-87
2023/01/17 15:09:02;;;;;;;6.95;6.40;;;8.90;99.90;;;;;;5223774;22;20056;-87
2023/01/17 15:11:25;;;;;;;5.20;4.90;;;8.80;99.90;;;;;;5222605;22;20076;-87
2023/01/17 15:13:49;;;;;;;4.90;4.60;;;8.90;99.90;;;;;;5204783;22;20026;-87
2023/01/17 15:16:33;;;;;;;5.72;5.43;;;8.80;99.90;;;;;;5225985;22;20071;-87
2023/01/17 15:18:54;;;;;;;5.32;5.13;;;8.80;99.90;;;;;;5206546;22;20026;-87
2023/01/17 15:21:20;;;;;;;7.28;6.90;;;8.70;99.90;;;;;;5195550;22;20111;-87
2023/01/17 15:23:59;;;;;;;5.75;5.57;;;8.70;99.90;;;;;;5209159;22;20361;-87
2023/01/17 15:26:22;;;;;;;7.40;7.05;;;8.70;99.90;;;;;;5197710;22;20042;-87
2023/01/17 15:28:46;;;;;;;11.75;10.68;;;8.70;99.90;;;;;;5217010;22;20056;-87
2023/01/17 15:31:07;;;;;;;7.03;6.55;;;8.70;99.90;;;;;;5226363;22;20079;-88
2023/01/17 15:33:31;;;;;;;10.83;9.90;;;8.70;99.90;;;;;;5223789;22;20022;-88
2023/01/17 15:36:06;;;;;;;5.97;5.80;;;8.70;99.90;;;;;;5203183;22;20261;-88
2023/01/17 15:38:26;;;;;;;8.60;8.10;;;8.60;99.90;;;;;;5234837;22;20022;-88
2023/01/17 15:40:46;;;;;;;5.93;5.55;;;8.60;99.90;;;;;;5231141;22;20042;-88
2023/01/17 15:43:18;;;;;;;4.90;4.80;;;8.60;99.90;;;;;;5209236;22;20243;-88
2023/01/17 15:45:38;;;;;;;3.30;3.30;;;8.60;99.90;;;;;;5180764;22;20082;-88
2023/01/17 15:48:37;;;;;;;2.55;2.55;;;8.60;99.90;;;;;;5211782;22;20273;-88
2023/01/17 15:52:48;;;;;;;3.72;3.72;;;8.60;99.90;;;;;;5189589;22;20074;-88
2023/01/17 15:56:23;;;;;;;7.03;6.80;;;8.60;99.90;;;;;;5111079;23;20136;-88
2023/01/17 16:10:52;;;;;;;3.08;3.08;;;8.60;99.90;;;;;;4964381;24;20031;-89
2023/01/17 16:13:12;;;;;;;4.20;3.88;;;8.70;99.90;;;;;;4964706;24;20035;-88
2023/01/17 16:15:34;;;;;;;4.95;4.55;;;8.70;99.90;;;;;;4964513;24;20064;-88
2023/01/17 16:18:01;;;;;;;5.60;5.50;;;8.60;99.90;;;;;;4957003;24;20164;-88
2023/01/17 16:20:29;;;;;;;6.72;6.20;;;8.60;99.90;;;;;;4956917;24;20049;-88
2023/01/17 16:22:49;;;;;;;7.53;7.13;;;8.50;99.90;;;;;;4964587;24;20072;-88
2023/01/17 16:25:20;;;;;;;8.07;7.50;;;8.50;99.90;;;;;;4956867;24;20054;-88
2023/01/17 16:27:41;;;;;;;6.78;6.40;;;8.50;99.90;;;;;;4956851;24;20065;-88